Time;durP1;ratioP1;P1;durP2;ratioP2;P2;SDS_P1;SDS_P2;PMS_P1;PMS_P2;Temp;Humidity;BMP_temperature;BMP_pressure;BME280_temperature;BME280_humidity;BME280_pressure;Samples;Min_cycle;Max_cycle;Signal;HPM_P1;HPM_P2
2021/09/23 00:00:33;;;;;;;2.53;2.42;;;18.00;99.90;;;18.36;66.11;102107.63;4956481;29;20039;-69
2021/09/23 00:03:13;;;;;;;3.65;3.50;;;18.00;99.90;;;18.36;66.11;102107.63;4956997;29;20490;-68
2021/09/23 00:05:43;;;;;;;3.78;3.58;;;18.00;99.90;;;18.41;65.85;102113.75;4956488;29;20383;-69
2021/09/23 00:08:12;;;;;;;3.13;2.97;;;18.00;99.90;;;18.31;66.24;102097.88;4956596;29;20047;-68
2021/09/23 00:10:42;;;;;;;2.90;2.80;;;18.00;99.90;;;18.42;66.22;102115.59;4956326;29;20043;-69
2021/09/23 00:13:12;;;;;;;4.43;4.13;;;18.00;99.90;;;18.45;66.21;102114.63;4956329;29;20043;-69
2021/09/23 00:15:41;;;;;;;3.35;3.25;;;18.00;99.90;;;18.42;66.37;102114.66;4938967;29;20067;-69
2021/09/23 00:18:13;;;;;;;16.67;6.10;;;18.00;99.90;;;18.42;66.36;102103.94;4956442;29;20454;-69
2021/09/23 00:20:45;;;;;;;2.83;2.72;;;18.00;99.90;;;18.41;66.14;102103.03;4956728;29;20060;-69
2021/09/23 00:23:15;;;;;;;3.28;3.17;;;18.00;99.90;;;18.36;65.88;102101.34;4956323;28;20106;-69
2021/09/23 00:25:43;;;;;;;2.65;2.55;;;18.00;99.90;;;18.32;65.97;102103.22;4954348;29;20520;-69
2021/09/23 00:28:12;;;;;;;7.53;4.75;;;17.90;99.90;;;18.31;65.74;102095.22;4956210;29;20047;-69
2021/09/23 00:30:42;;;;;;;4.10;3.90;;;17.90;99.90;;;18.25;65.71;102090.84;4956193;29;20046;-69
2021/09/23 00:33:10;;;;;;;3.88;3.65;;;17.90;99.90;;;18.18;65.73;102090.94;4938959;29;20055;-69
2021/09/23 00:35:39;;;;;;;4.38;4.18;;;17.80;99.90;;;18.13;66.04;102088.34;4955706;29;20133;-69
2021/09/23 00:38:09;;;;;;;3.22;3.10;;;17.70;99.90;;;18.12;65.76;102083.03;4956123;29;20058;-69
2021/09/23 00:40:37;;;;;;;5.33;4.63;;;17.70;99.90;;;18.09;65.87;102088.41;4956110;29;20039;-70
2021/09/23 00:43:06;;;;;;;3.80;3.60;;;17.70;99.90;;;18.01;65.89;102078.72;4954721;29;20051;-69
2021/09/23 00:45:34;;;;;;;3.47;3.30;;;17.60;99.90;;;18.03;66.14;102087.63;4938654;29;20050;-69
2021/09/23 00:48:03;;;;;;;5.40;4.88;;;17.60;99.90;;;18.08;66.08;102081.31;4938666;29;20054;-69
2021/09/23 00:50:34;;;;;;;3.67;3.47;;;17.70;99.90;;;18.02;66.26;102083.16;4954771;29;20193;-69
2021/09/23 00:53:12;;;;;;;3.47;3.28;;;17.60;99.90;;;18.01;66.70;102088.53;4954627;29;20512;-69
2021/09/23 00:55:42;;;;;;;3.20;3.08;;;17.60;99.90;;;18.08;66.79;102092.00;4954591;29;20225;-69
2021/09/23 00:58:10;;;;;;;3.00;2.90;;;17.60;99.90;;;18.03;66.85;102081.38;4954512;29;20059;-69
2021/09/23 01:00:43;;;;;;;2.65;2.55;;;17.70;99.90;;;18.04;67.04;102067.03;4938542;29;20039;-69
2021/09/23 01:03:16;;;;;;;4.88;3.90;;;17.70;99.90;;;18.04;67.29;102075.09;4954473;29;20051;-69
2021/09/23 01:05:47;;;;;;;4.47;4.13;;;17.60;99.90;;;18.01;67.32;102062.66;4938564;29;20054;-69
2021/09/23 01:08:17;;;;;;;2.90;2.80;;;17.60;99.90;;;17.97;67.45;102054.69;4938400;29;20075;-69
2021/09/23 01:10:45;;;;;;;3.20;3.10;;;17.60;99.90;;;17.96;67.68;102066.31;4938406;29;20071;-69
2021/09/23 01:13:15;;;;;;;3.72;3.58;;;17.60;99.90;;;17.94;67.68;102066.31;4955568;29;20045;-69
2021/09/23 01:16:16;;;;;;;2.90;2.80;;;17.50;99.90;;;17.95;67.92;102069.88;4945824;29;20481;-69
2021/09/23 01:19:04;;;;;;;3.20;3.10;;;17.50;99.90;;;17.94;68.20;102065.44;4938298;29;20065;-69
2021/09/23 01:21:36;;;;;;;3.20;3.00;;;17.60;99.90;;;17.92;68.44;102060.09;4938306;29;20050;-69
2021/09/23 01:24:07;;;;;;;4.88;4.60;;;17.50;99.90;;;17.96;68.40;102053.78;4955423;29;20382;-68
2021/09/23 01:26:36;;;;;;;2.90;2.80;;;17.50;99.90;;;17.98;68.50;102053.78;4955379;29;20552;-68
2021/09/23 01:29:13;;;;;;;3.03;2.92;;;17.60;99.90;;;17.99;68.72;102045.72;4938025;29;20047;-69
2021/09/23 01:31:49;;;;;;;3.58;3.38;;;17.60;99.90;;;17.61;68.85;101983.00;4938153;29;20238;-69
2021/09/23 01:34:18;;;;;;;3.15;3.05;;;17.60;99.90;;;18.01;69.11;102059.06;4954052;29;20051;-69
2021/09/23 01:36:48;;;;;;;3.05;2.95;;;17.60;99.90;;;18.06;69.26;102056.34;4937894;29;20134;-69
2021/09/23 01:39:18;;;;;;;3.15;3.05;;;17.70;99.90;;;18.08;69.46;102047.34;4953971;29;20058;-69
2021/09/23 01:41:47;;;;;;;3.08;2.95;;;17.70;99.90;;;18.06;69.63;102041.13;4953722;29;20054;-69
2021/09/23 01:44:20;;;;;;;3.05;2.95;;;17.70;99.90;;;18.12;69.70;102045.53;4937893;29;20153;-69
2021/09/23 01:46:49;;;;;;;2.85;2.75;;;17.70;99.90;;;18.12;70.09;102054.41;4937905;29;20055;-69
2021/09/23 01:49:23;;;;;;;3.15;3.05;;;17.70;99.90;;;18.09;70.53;102054.50;4937884;29;20039;-69
2021/09/23 01:51:54;;;;;;;4.57;4.27;;;17.70;99.90;;;18.08;70.73;102059.88;4953926;29;20102;-68
2021/09/23 01:54:25;;;;;;;3.40;3.22;;;17.70;99.90;;;18.08;71.08;102027.75;4937655;29;20303;-69
2021/09/23 01:56:54;;;;;;;2.92;2.83;;;17.70;99.90;;;18.05;71.24;102023.31;4937996;29;20164;-69
2021/09/23 01:59:26;;;;;;;3.08;2.97;;;17.60;99.90;;;18.02;71.54;102026.06;4937838;29;20066;-69
2021/09/23 02:02:01;;;;;;;3.05;2.95;;;17.60;99.90;;;17.94;71.78;102009.22;4938118;29;20055;-69
2021/09/23 02:04:30;;;;;;;2.65;2.55;;;17.50;99.90;;;17.94;71.73;102010.09;4937822;29;20445;-69
2021/09/23 02:07:00;;;;;;;13.93;4.45;;;17.50;99.90;;;17.94;71.81;102012.75;4937816;29;20063;-69
2021/09/23 02:09:32;;;;;;;3.63;3.38;;;17.50;99.90;;;17.93;71.82;101999.41;4953676;29;20048;-69
2021/09/23 02:12:03;;;;;;;2.90;2.80;;;17.60;99.90;;;17.91;72.11;101994.09;4953719;29;20052;-69
2021/09/23 02:14:35;;;;;;;2.55;2.45;;;17.50;99.90;;;17.88;72.38;102001.28;4937549;29;20517;-69
2021/09/23 02:17:04;;;;;;;3.70;3.50;;;17.50;99.90;;;17.81;72.85;101980.84;4937209;29;20059;-68
2021/09/23 02:19:43;;;;;;;2.60;2.50;;;17.50;99.90;;;17.78;73.51;101959.50;4953387;29;20079;-69
2021/09/23 02:22:14;;;;;;;2.78;2.67;;;17.40;99.90;;;17.77;74.15;101963.06;4937582;29;20404;-68
2021/09/23 02:24:44;;;;;;;2.92;2.80;;;17.40;99.90;;;17.68;74.90;101944.50;4937671;29;20051;-69
2021/09/23 02:27:13;;;;;;;3.33;3.00;;;17.30;99.90;;;17.78;75.08;101946.13;4937605;29;20055;-69
2021/09/23 02:29:41;;;;;;;4.43;4.13;;;17.30;99.90;;;17.78;75.19;101940.78;4937503;29;20179;-69
2021/09/23 02:32:10;;;;;;;3.85;3.65;;;17.30;99.90;;;17.81;75.24;101938.03;4937304;29;20114;-69
2021/09/23 02:34:39;;;;;;;2.95;2.85;;;17.40;99.90;;;17.81;75.29;101928.22;4953505;29;20051;-69
2021/09/23 02:37:09;;;;;;;5.32;3.80;;;17.40;99.90;;;17.82;75.39;101931.78;4937204;29;20537;-69
2021/09/23 02:39:38;;;;;;;2.95;2.85;;;17.40;99.90;;;17.85;75.50;101929.03;4953467;29;20054;-68
2021/09/23 02:42:07;;;;;;;5.15;3.25;;;17.40;99.90;;;17.81;75.76;101930.00;4937470;29;20047;-69
2021/09/23 02:44:35;;;;;;;3.13;3.03;;;17.40;99.90;;;17.82;76.15;101929.09;4937340;29;20102;-69
2021/09/23 02:47:04;;;;;;;2.97;2.88;;;17.40;99.90;;;17.82;76.09;101924.66;4953530;28;20071;-69
2021/09/23 02:49:32;;;;;;;3.13;3.03;;;17.40;99.90;;;17.85;76.33;101924.56;4940806;29;20047;-68
2021/09/23 02:52:01;;;;;;;3.10;3.00;;;17.40;99.90;;;17.84;76.52;101916.59;4956815;29;20047;-68
2021/09/23 02:54:29;;;;;;;2.85;2.75;;;17.40;99.90;;;17.83;76.84;101909.44;4956821;29;20066;-69
2021/09/23 02:56:59;;;;;;;3.63;3.42;;;17.40;99.90;;;17.87;76.80;101914.72;4957952;29;20059;-68
2021/09/23 02:59:28;;;;;;;5.10;4.68;;;17.50;99.90;;;17.87;76.93;101914.72;4940681;29;20043;-69
2021/09/23 03:01:56;;;;;;;3.33;3.13;;;17.50;99.90;;;17.83;76.98;101901.41;4940609;29;20051;-69
2021/09/23 03:04:25;;;;;;;3.10;3.00;;;17.50;99.90;;;17.93;76.69;101909.28;4956559;29;20047;-69
2021/09/23 03:06:54;;;;;;;3.58;3.38;;;17.50;99.90;;;17.96;76.70;101913.69;4956508;29;20493;-69
2021/09/23 03:09:23;;;;;;;4.07;3.80;;;17.50;99.90;;;17.94;76.76;101918.19;4940055;29;20056;-68
2021/09/23 03:11:51;;;;;;;3.03;2.92;;;17.60;99.90;;;17.91;77.32;101913.78;4940387;29;20055;-69
2021/09/23 03:14:21;;;;;;;4.28;3.55;;;17.50;99.90;;;17.91;77.61;101910.19;4940366;29;20067;-69
2021/09/23 03:16:50;;;;;;;3.42;3.25;;;17.50;99.90;;;17.89;77.59;101901.31;4957481;29;20409;-69
2021/09/23 03:19:19;;;;;;;3.13;2.97;;;17.50;99.90;;;17.91;77.78;101910.19;4940410;29;20118;-70
2021/09/23 03:21:47;;;;;;;2.50;2.40;;;17.50;99.90;;;17.97;77.69;101899.38;4957431;29;20115;-69
2021/09/23 03:24:16;;;;;;;3.28;3.08;;;17.50;99.90;;;17.97;77.95;101902.06;4940220;29;20453;-69
2021/09/23 03:26:45;;;;;;;4.68;4.38;;;17.60;99.90;;;17.97;78.03;101894.03;4940216;29;20055;-69
2021/09/23 03:29:13;;;;;;;2.78;2.67;;;17.60;99.90;;;18.01;78.02;101901.09;4957058;29;20047;-69
2021/09/23 03:31:43;;;;;;;4.18;3.97;;;17.60;99.90;;;18.02;78.21;101898.38;4957634;29;20051;-69
2021/09/23 03:34:12;;;;;;;2.65;2.55;;;17.60;99.90;;;18.06;78.27;101888.50;4957308;29;20040;-69
2021/09/23 03:36:40;;;;;;;4.32;3.40;;;17.70;99.90;;;18.11;78.44;101889.31;4957280;29;20078;-69
2021/09/23 03:39:09;;;;;;;2.70;2.60;;;17.70;99.90;;;18.14;78.49;101888.38;4957442;29;20114;-69
2021/09/23 03:41:37;;;;;;;3.67;3.47;;;17.70;99.90;;;18.10;78.90;101887.53;4956880;29;20446;-69
2021/09/23 03:44:06;;;;;;;4.13;3.92;;;17.70;99.90;;;18.04;78.83;101879.59;4939753;29;20097;-69
2021/09/23 03:46:34;;;;;;;4.40;4.05;;;17.70;99.90;;;18.00;78.95;101881.47;4939829;29;20047;-69
2021/09/23 03:49:04;;;;;;;3.67;3.42;;;17.60;99.90;;;18.00;79.01;101883.28;4957159;29;20039;-69
2021/09/23 03:51:33;;;;;;;4.97;4.63;;;17.60;99.90;;;17.94;79.25;101876.22;4955797;29;20043;-69
2021/09/23 03:54:02;;;;;;;3.58;3.45;;;17.60;99.90;;;17.97;79.28;101883.31;4955694;29;20449;-69
2021/09/23 03:56:30;;;;;;;3.55;3.30;;;17.60;99.90;;;17.94;79.64;101891.41;4939600;29;20425;-69
2021/09/23 03:58:59;;;;;;;4.65;4.32;;;17.50;99.90;;;17.97;79.76;101908.31;4939529;29;20054;-69
2021/09/23 04:01:27;;;;;;;6.07;5.50;;;17.60;99.90;;;17.96;80.19;101890.47;4955510;29;20103;-69
2021/09/23 04:03:56;;;;;;;3.88;3.67;;;17.50;99.90;;;17.99;80.36;101902.91;4939179;29;20085;-69
2021/09/23 04:06:26;;;;;;;3.83;3.63;;;17.60;99.90;;;18.01;80.66;101895.75;4939446;29;20058;-69
2021/09/23 04:08:55;;;;;;;3.15;3.05;;;17.60;99.90;;;18.03;80.58;101896.59;4955326;29;20401;-67
2021/09/23 04:11:23;;;;;;;4.13;3.85;;;17.60;99.90;;;18.01;80.67;101882.34;4956342;29;20123;-67
2021/09/23 04:13:53;;;;;;;3.72;3.58;;;17.60;99.90;;;18.02;80.90;101895.69;4955297;29;20505;-68
2021/09/23 04:16:21;;;;;;;4.40;4.10;;;17.60;99.90;;;18.06;80.95;101899.19;4956665;29;20470;-69
2021/09/23 04:18:49;;;;;;;3.40;3.30;;;17.60;99.90;;;18.10;80.90;101892.88;4939101;29;20394;-68
2021/09/23 04:21:18;;;;;;;3.13;3.03;;;17.70;99.90;;;18.11;80.85;101894.66;4955481;29;20055;-69
2021/09/23 04:23:48;;;;;;;5.35;4.95;;;17.70;99.90;;;18.07;80.78;101881.34;4938732;29;20047;-69
2021/09/23 04:26:16;;;;;;;3.30;3.20;;;17.70;99.90;;;18.14;81.15;101881.19;4939130;29;20085;-70
2021/09/23 04:28:45;;;;;;;3.08;2.97;;;17.70;99.90;;;17.98;80.96;101836.91;4939032;29;20098;-68
2021/09/23 04:31:14;;;;;;;5.00;4.70;;;17.70;99.90;;;18.20;80.93;101861.44;4954584;29;20079;-68
2021/09/23 04:33:43;;;;;;;12.88;6.57;;;17.80;99.90;;;18.14;81.35;101851.75;4938988;29;20055;-69
2021/09/23 04:36:11;;;;;;;3.88;3.67;;;17.80;99.90;;;18.11;81.64;101838.41;4954897;29;20043;-69
2021/09/23 04:38:40;;;;;;;4.20;4.00;;;17.70;99.90;;;18.17;81.79;101840.97;4938946;29;20454;-69
2021/09/23 04:41:11;;;;;;;9.07;4.13;;;17.70;99.90;;;18.19;81.58;101839.16;4954909;29;20047;-69
2021/09/23 04:43:40;;;;;;;3.15;3.05;;;17.80;99.90;;;18.15;81.85;101837.44;4938876;29;20051;-69
2021/09/23 04:46:16;;;;;;;3.05;2.95;;;17.70;99.90;;;18.18;81.59;101829.34;4954632;29;20051;-69
2021/09/23 04:48:45;;;;;;;6.75;6.13;;;17.80;99.90;;;18.11;81.88;101814.31;4938753;29;20134;-69
2021/09/23 04:51:13;;;;;;;2.95;2.85;;;17.70;99.90;;;18.15;81.70;101810.66;4938548;29;20469;-69
2021/09/23 04:53:42;;;;;;;5.53;5.07;;;17.70;99.90;;;18.07;82.19;101809.94;4938608;29;20071;-69
2021/09/23 04:56:12;;;;;;;5.85;5.43;;;17.70;99.90;;;18.03;82.50;101803.75;4938521;29;20043;-69
2021/09/23 04:58:40;;;;;;;5.28;4.93;;;17.70;99.90;;;18.04;82.61;101799.28;4954525;29;20054;-69
2021/09/23 05:01:09;;;;;;;3.30;3.20;;;17.60;99.90;;;18.02;82.90;101801.13;4938498;29;20053;-69
2021/09/23 05:03:37;;;;;;;3.97;3.78;;;17.60;99.90;;;18.02;82.86;101793.94;4954412;29;20134;-69
2021/09/23 05:06:07;;;;;;;3.67;3.47;;;17.60;99.90;;;18.04;82.68;101801.94;4938471;29;20040;-69
2021/09/23 05:08:36;;;;;;;3.70;3.50;;;17.60;99.90;;;18.07;82.49;101796.53;4954509;29;20378;-69
2021/09/23 05:11:07;;;;;;;3.30;3.15;;;17.70;99.90;;;18.08;82.43;101787.59;4937903;29;20043;-69
2021/09/23 05:13:37;;;;;;;4.85;4.55;;;17.70;99.90;;;18.09;82.41;101778.66;4955237;29;20046;-69
2021/09/23 05:16:06;;;;;;;4.95;4.55;;;17.70;99.90;;;18.07;82.42;101783.16;4955625;29;20039;-69
2021/09/23 05:18:35;;;;;;;2.83;2.72;;;17.70;99.90;;;18.12;82.48;101783.94;4955560;29;20110;-69
2021/09/23 05:21:03;;;;;;;3.10;2.95;;;17.70;99.90;;;18.11;82.46;101778.63;4955460;29;20058;-69
2021/09/23 05:23:32;;;;;;;4.60;4.30;;;17.70;99.90;;;18.15;82.49;101780.31;4938138;29;20047;-69
2021/09/23 05:26:00;;;;;;;2.95;2.85;;;17.70;99.90;;;18.19;82.46;101774.00;4955080;29;20047;-69
2021/09/23 05:28:29;;;;;;;5.15;4.72;;;17.70;99.90;;;18.13;82.52;101763.41;4955372;29;20049;-69
2021/09/23 05:30:59;;;;;;;3.00;2.90;;;17.70;99.90;;;18.12;82.71;101765.19;4955036;29;20047;-69
2021/09/23 05:33:27;;;;;;;7.10;3.65;;;17.70;99.90;;;18.12;82.61;101765.19;4955013;29;20047;-69
2021/09/23 05:35:55;;;;;;;3.80;3.60;;;17.70;99.90;;;18.08;82.64;101766.16;4955176;29;20122;-69
2021/09/23 05:38:24;;;;;;;5.03;4.72;;;17.70;99.90;;;17.97;82.71;101762.84;4955209;29;20043;-69
2021/09/23 05:40:52;;;;;;;3.47;3.28;;;17.70;99.90;;;17.94;82.67;101738.81;4955156;29;20297;-69
2021/09/23 05:43:21;;;;;;;3.50;3.30;;;17.70;99.90;;;18.09;82.49;101767.94;4954886;29;20039;-69
2021/09/23 05:45:49;;;;;;;4.85;4.45;;;17.70;99.90;;;18.04;82.52;101773.38;4954809;29;20168;-69
2021/09/23 05:48:19;;;;;;;3.45;3.33;;;17.70;99.90;;;18.08;82.59;101770.66;4955097;29;20073;-69
2021/09/23 05:50:47;;;;;;;4.18;3.90;;;17.60;99.90;;;18.00;82.37;101755.63;4954928;29;20048;-69
2021/09/23 05:53:16;;;;;;;7.32;4.47;;;17.70;99.90;;;18.11;82.21;101775.94;4954976;29;20051;-69
2021/09/23 05:55:45;;;;;;;5.22;4.75;;;17.70;99.90;;;18.01;82.60;101780.59;4954543;29;20063;-69
2021/09/23 05:58:14;;;;;;;4.65;4.35;;;17.60;99.90;;;18.04;82.45;101777.84;4954603;29;20059;-69
2021/09/23 06:00:42;;;;;;;2.88;2.70;;;17.70;99.90;;;18.06;82.62;101778.69;4954762;29;20047;-69
2021/09/23 06:03:10;;;;;;;4.07;3.60;;;17.70;99.90;;;18.12;82.42;101785.75;4954958;29;20098;-69
2021/09/23 06:05:41;;;;;;;8.02;6.00;;;17.70;99.90;;;18.17;82.18;101782.06;4954906;29;20150;-69
2021/09/23 06:08:09;;;;;;;3.00;2.90;;;17.80;99.90;;;18.21;81.76;101783.75;4955271;29;20044;-69
2021/09/23 06:10:37;;;;;;;3.97;3.78;;;17.80;99.90;;;18.28;81.44;101782.72;4954776;29;20051;-69
2021/09/23 06:13:06;;;;;;;3.42;3.22;;;17.90;99.90;;;18.29;80.85;101786.28;4954571;29;20409;-69
2021/09/23 06:15:35;;;;;;;3.20;3.08;;;17.90;99.90;;;18.51;80.61;101793.84;4954553;29;20082;-69
2021/09/23 06:18:03;;;;;;;3.78;3.58;;;18.10;99.90;;;18.60;79.39;101784.72;4954826;29;20063;-69
2021/09/23 06:20:32;;;;;;;3.00;2.90;;;18.20;99.90;;;18.68;78.78;101790.75;4954634;29;20126;-69
2021/09/23 06:23:01;;;;;;;2.42;2.33;;;18.30;99.90;;;18.74;77.61;101796.88;4956613;28;20047;-69
2021/09/23 06:25:30;;;;;;;2.67;2.57;;;18.40;99.90;;;18.91;77.27;101801.88;4958291;29;20039;-69
2021/09/23 06:27:58;;;;;;;4.18;3.88;;;18.50;99.90;;;18.92;76.62;101780.38;4940928;29;20146;-69
2021/09/23 06:30:26;;;;;;;3.35;3.25;;;18.60;99.90;;;18.92;76.42;101777.69;4958302;29;20489;-69
2021/09/23 06:32:55;;;;;;;3.28;3.10;;;18.60;99.90;;;18.87;76.62;101771.53;4957986;29;20055;-69
2021/09/23 06:35:25;;;;;;;3.40;3.20;;;18.60;99.90;;;18.97;76.40;101776.69;4941126;29;20047;-69
2021/09/23 06:37:54;;;;;;;3.85;3.58;;;18.60;99.90;;;18.95;76.34;101778.53;4956833;29;20066;-69
2021/09/23 06:40:24;;;;;;;3.00;2.90;;;18.60;99.90;;;19.09;76.43;101779.06;4957887;29;20047;-69
2021/09/23 06:42:52;;;;;;;3.40;3.20;;;18.70;99.90;;;19.21;75.45;101774.28;4958524;29;20047;-69
2021/09/23 06:45:20;;;;;;;3.53;3.35;;;18.80;99.90;;;19.13;74.63;101764.66;4940702;29;20047;-69
2021/09/23 06:47:49;;;;;;;2.95;2.85;;;18.80;99.90;;;19.25;74.52;101773.28;4958033;29;20051;-69
2021/09/23 06:50:22;;;;;;;4.15;3.50;;;18.80;99.90;;;19.40;74.35;101777.38;4957741;29;20050;-69
2021/09/23 06:52:50;;;;;;;2.92;2.83;;;19.00;99.90;;;19.47;74.04;101769.13;4958303;29;20093;-70
2021/09/23 06:55:19;;;;;;;7.07;4.10;;;19.10;99.90;;;19.40;73.45;101755.91;4957881;29;20059;-69
2021/09/23 06:57:48;;;;;;;3.00;2.90;;;19.10;99.90;;;19.14;73.62;101742.28;4957376;29;20043;-69
2021/09/23 07:00:35;;;;;;;5.38;4.55;;;18.90;99.90;;;19.17;73.81;101753.81;4957789;29;20062;-69
2021/09/23 07:03:32;;;;;;;4.18;3.80;;;18.80;99.90;;;19.23;73.87;101739.34;4940514;29;20133;-69
2021/09/23 07:06:26;;;;;;;3.33;3.13;;;18.80;99.90;;;19.44;73.08;101747.75;4956256;29;20055;-69
2021/09/23 07:08:55;;;;;;;3.80;3.60;;;19.00;99.90;;;19.59;72.54;101751.81;4940483;29;20051;-70
2021/09/23 07:11:26;;;;;;;12.63;5.43;;;19.20;99.90;;;19.72;71.54;101732.63;4940373;29;20364;-70
2021/09/23 07:13:56;;;;;;;3.05;2.95;;;19.40;99.90;;;19.57;71.29;101667.75;4957483;29;20085;-70
2021/09/23 07:16:25;;;;;;;2.90;2.80;;;19.70;99.90;;;20.32;70.20;101740.78;4957486;29;20054;-70
2021/09/23 07:18:53;;;;;;;3.53;3.33;;;19.90;99.90;;;20.45;69.66;101734.09;4939889;29;20055;-70
2021/09/23 07:21:22;;;;;;;8.40;3.83;;;20.10;99.90;;;20.69;69.17;101735.97;4956186;29;20488;-70
2021/09/23 07:23:51;;;;;;;6.90;4.22;;;20.30;99.90;;;20.82;68.48;101731.09;4957198;29;20078;-70
2021/09/23 07:26:19;;;;;;;3.45;3.25;;;20.40;99.90;;;20.90;67.80;101737.09;4957426;29;20039;-70
2021/09/23 07:28:48;;;;;;;3.58;3.38;;;20.50;99.90;;;20.97;68.03;101718.94;4957073;29;20126;-70
2021/09/23 07:31:19;;;;;;;2.63;2.50;;;20.60;99.90;;;20.89;68.23;101729.06;4957339;29;20040;-70
2021/09/23 07:33:49;;;;;;;2.80;2.70;;;20.60;99.90;;;20.77;68.73;101722.28;4956541;28;20051;-70
2021/09/23 07:36:18;;;;;;;2.33;2.23;;;20.40;99.90;;;20.81;69.27;101723.94;4940032;29;20082;-71
2021/09/23 07:38:46;;;;;;;3.25;3.10;;;20.40;99.90;;;20.84;69.47;101718.47;4955846;29;20299;-71
2021/09/23 07:41:15;;;;;;;3.78;3.58;;;20.40;99.90;;;20.68;69.46;101715.41;4957357;29;20505;-71
2021/09/23 07:43:44;;;;;;;2.53;2.42;;;20.30;99.90;;;20.57;69.72;101725.63;4956987;29;20122;-70
2021/09/23 07:46:12;;;;;;;2.90;2.80;;;20.20;99.90;;;20.44;69.70;101710.81;4939657;29;20051;-70
2021/09/23 07:48:42;;;;;;;3.33;3.13;;;20.10;99.90;;;20.19;69.92;101672.19;4939821;29;20047;-71
2021/09/23 07:51:10;;;;;;;2.70;2.60;;;20.00;99.90;;;20.32;70.11;101713.91;4939618;29;20126;-70
2021/09/23 07:53:39;;;;;;;3.70;3.50;;;19.90;99.90;;;20.33;70.04;101704.00;4939777;29;20294;-70
2021/09/23 07:56:07;;;;;;;4.57;3.33;;;19.90;99.90;;;20.37;69.99;101703.88;4939627;29;20058;-70
2021/09/23 07:58:41;;;;;;;2.70;2.60;;;20.00;99.90;;;20.44;69.70;101709.94;4955631;29;20102;-71
2021/09/23 08:01:10;;;;;;;2.95;2.85;;;20.00;99.90;;;20.33;69.12;101715.63;4957017;29;20481;-71
2021/09/23 08:03:39;;;;;;;3.07;2.97;;;20.00;99.90;;;20.31;68.75;101722.88;4955238;29;20055;-70
2021/09/23 08:06:10;;;;;;;2.90;2.80;;;20.00;99.90;;;20.41;68.47;101729.72;4939536;29;20046;-70
2021/09/23 08:08:39;;;;;;;3.25;3.15;;;20.00;99.90;;;20.43;68.51;101730.56;4939477;29;20043;-70
2021/09/23 08:11:07;;;;;;;2.80;2.70;;;20.10;99.90;;;20.48;68.53;101725.91;4939345;29;20094;-71
2021/09/23 08:13:36;;;;;;;4.18;3.88;;;20.10;99.90;;;20.59;67.88;101739.91;4955351;29;20047;-70
2021/09/23 08:16:05;;;;;;;3.20;3.00;;;20.20;99.90;;;20.31;67.84;101739.00;4956664;29;20053;-70
2021/09/23 08:18:54;;;;;;;3.40;3.20;;;20.00;99.90;;;20.20;67.54;101727.69;4955938;29;20569;-70
2021/09/23 08:21:59;;;;;;;3.90;2.80;;;19.90;99.90;;;20.20;67.89;101748.31;4945452;29;20091;-70
2021/09/23 08:24:27;;;;;;;2.80;2.70;;;19.90;99.90;;;20.13;67.99;101733.28;4956414;29;20457;-71
2021/09/23 08:26:56;;;;;;;2.80;2.70;;;19.80;99.90;;;20.09;68.20;101755.78;4955065;29;20101;-70
2021/09/23 08:29:25;;;;;;;3.00;2.90;;;19.80;99.90;;;20.00;68.62;101727.38;4956265;29;20094;-70
2021/09/23 08:31:55;;;;;;;2.95;2.85;;;19.80;99.90;;;20.27;68.56;101758.81;4956131;29;20043;-71
2021/09/23 08:34:24;;;;;;;2.97;2.87;;;19.90;99.90;;;20.20;68.27;101738.44;4938674;29;20051;-72
2021/09/23 08:36:52;;;;;;;3.42;3.28;;;19.90;99.90;;;20.31;68.53;101748.84;4955865;29;20051;-71
2021/09/23 08:39:22;;;;;;;3.10;3.00;;;20.00;99.90;;;20.27;68.34;101748.06;4938858;29;20405;-71
2021/09/23 08:41:52;;;;;;;6.80;2.83;;;20.00;99.90;;;20.18;68.41;101753.72;4955741;29;20043;-70
2021/09/23 08:44:22;;;;;;;3.97;3.67;;;19.90;99.90;;;20.06;68.75;101762.09;4938540;28;20053;-70
2021/09/23 08:46:50;;;;;;;2.85;2.70;;;19.80;99.90;;;19.83;69.38;101758.31;4938213;29;20044;-71
2021/09/23 08:49:19;;;;;;;2.55;2.45;;;19.60;99.90;;;19.80;68.72;101780.78;4954641;29;20568;-70
2021/09/23 08:51:49;;;;;;;2.78;2.67;;;19.50;99.90;;;19.65;69.01;101774.03;4938690;29;20051;-70
2021/09/23 08:54:18;;;;;;;4.85;4.45;;;19.40;99.90;;;19.56;69.42;101768.91;4954437;29;20043;-71
2021/09/23 08:56:49;;;;;;;3.50;3.28;;;19.40;99.90;;;19.55;69.70;101760.91;4938742;29;20454;-71
2021/09/23 08:59:18;;;;;;;3.33;3.20;;;19.30;99.90;;;19.60;69.34;101775.06;4938557;29;20497;-70
2021/09/23 09:01:50;;;;;;;11.45;3.92;;;19.30;99.90;;;19.55;69.48;101760.91;4938483;29;20054;-71
2021/09/23 09:04:42;;;;;;;3.95;3.28;;;19.20;99.90;;;19.77;68.54;101767.44;4938466;29;20052;-70
2021/09/23 09:07:31;;;;;;;2.67;2.58;;;19.40;99.90;;;19.89;67.96;101756.34;4951248;29;20059;-71
2021/09/23 09:10:15;;;;;;;3.13;3.03;;;19.60;99.90;;;20.06;67.79;101748.69;4938433;29;20139;-72
2021/09/23 09:12:46;;;;;;;3.13;3.03;;;19.70;99.90;;;20.29;67.65;101751.59;4938301;29;20142;-70
2021/09/23 09:15:17;;;;;;;;;;;19.90;99.90;;;20.58;66.96;101754.25;4938556;29;20047;-68
2021/09/23 09:17:48;;;;;;;5.32;4.80;;;20.20;99.90;;;20.62;66.24;101750.56;4937929;29;20013;-69
2021/09/23 09:20:18;;;;;;;2.63;2.53;;;20.20;99.90;;;20.74;65.98;101751.09;4938267;29;20077;-69
2021/09/23 09:22:46;;;;;;;3.00;2.90;;;20.40;99.90;;;20.63;65.61;101752.28;4937817;29;20058;-69
2021/09/23 09:25:15;;;;;;;3.40;3.28;;;20.40;99.90;;;20.54;66.33;101751.72;4954183;29;20054;-68
2021/09/23 09:27:48;;;;;;;2.78;2.67;;;20.20;99.90;;;20.45;66.36;101741.25;4952746;29;20510;-69
2021/09/23 09:30:22;;;;;;;2.83;2.72;;;20.20;99.90;;;20.45;65.97;101744.84;4952848;29;20291;-68
2021/09/23 09:32:57;;;;;;;3.67;3.47;;;20.10;99.90;;;20.29;66.48;101751.59;4952888;29;20207;-68
2021/09/23 09:35:36;;;;;;;2.85;2.75;;;20.00;99.90;;;20.09;66.85;101755.78;4936832;29;20047;-68
2021/09/23 09:38:10;;;;;;;3.10;2.90;;;19.80;99.90;;;19.91;66.75;101751.81;4937024;29;20119;-68
2021/09/23 09:40:42;;;;;;;3.63;3.00;;;19.60;99.90;;;19.83;67.47;101740.41;4952711;29;20055;-68
2021/09/23 09:43:17;;;;;;;3.17;3.00;;;19.60;99.90;;;19.80;67.99;101753.94;4952684;29;20096;-68
2021/09/23 09:45:49;;;;;;;2.90;2.80;;;19.50;99.90;;;19.74;68.15;101751.41;4936698;29;20485;-68
2021/09/23 09:48:29;;;;;;;;;;;19.40;99.90;;;19.85;68.43;101756.47;4953145;29;20505;-68
2021/09/23 09:51:02;;;;;;;2.70;2.60;;;19.50;99.90;;;19.86;68.42;101756.41;4936767;29;19969;-68
2021/09/23 09:53:31;;;;;;;3.10;3.00;;;19.50;99.90;;;20.01;68.07;101758.69;4952594;29;20303;-68
2021/09/23 09:56:00;;;;;;;3.58;3.38;;;19.60;99.90;;;19.99;67.71;101756.97;4952634;28;20484;-69
2021/09/23 09:58:30;;;;;;;2.85;2.75;;;19.70;99.90;;;19.78;67.87;101758.47;4941046;29;20527;-68
2021/09/23 10:00:59;;;;;;;2.60;2.50;;;19.50;99.90;;;19.74;67.16;101756.78;4957533;29;20061;-69
2021/09/23 10:03:30;;;;;;;43.97;3.72;;;19.40;99.90;;;19.45;67.51;101733.41;4942465;29;20048;-71
2021/09/23 10:05:59;;;;;;;3.28;3.17;;;19.30;99.90;;;19.53;67.95;101747.50;4958664;29;20130;-70
2021/09/23 10:08:27;;;;;;;3.35;3.15;;;19.20;99.90;;;19.40;68.65;101753.25;4941650;29;20047;-69
2021/09/23 10:10:58;;;;;;;3.33;3.17;;;19.20;99.90;;;19.52;68.26;101758.28;4957531;29;20051;-69
2021/09/23 10:13:30;;;;;;;3.60;3.43;;;19.20;99.90;;;19.82;67.53;101762.84;4957366;29;20138;-69
2021/09/23 10:16:00;;;;;;;2.78;2.67;;;19.40;99.90;;;20.13;66.89;101760.13;4958283;29;20118;-69
2021/09/23 10:18:29;;;;;;;3.70;3.50;;;19.70;99.90;;;20.24;65.77;101755.34;4957231;29;20070;-69
2021/09/23 10:20:59;;;;;;;3.00;2.90;;;19.90;99.90;;;20.33;65.83;101761.31;4941203;29;20058;-69
2021/09/23 10:23:31;;;;;;;3.38;3.20;;;20.00;99.90;;;20.27;65.99;101749.88;4957121;29;20051;-69
2021/09/23 10:26:00;;;;;;;3.10;3.00;;;19.90;99.90;;;20.68;66.13;101746.78;4940996;29;20524;-69